Havillah, Washington
Current Conditions -  °F | °C
As of 11:53 AM on Monday 24 Nov 2014 (Local Time) from KOMK Reporting Station
Few Clouds Few Clouds  
Wind Chill: 31°   Ceiling: Unl
Heat Index: 31°   Visibility: 10mi
Dew Point: 28°   Wind: 0mph
Humidity: 89%   Direction: NA
Pressure: 30.28"   Gusts: NA
Location:  48.6708°N, 119.278°W
Report Text: KOMK 241953Z AUTO 00000KT 10SM FEW100 M01/M02 A3028 RMK AO2 SLP272 T10061022
Loading
Personal Weather Stations






























Interactive Weather Map New forecast layout! Learn more

10-Day Weather Forecast

Advertisements
Track Severe Weather on mobile